sensor_id;sensor_type;location;lat;lon;timestamp;P1;durP1;ratioP1;P2;durP2;ratioP2
30519;SDS011;17300;50.374;8.006;2022-07-18T00:02:04;1.37;;;1.10;;
30519;SDS011;17300;50.374;8.006;2022-07-18T00:04:31;0.80;;;0.80;;
30519;SDS011;17300;50.374;8.006;2022-07-18T00:06:58;0.80;;;0.80;;
30519;SDS011;17300;50.374;8.006;2022-07-18T00:09:24;1.47;;;0.73;;
30519;SDS011;17300;50.374;8.006;2022-07-18T00:11:51;2.07;;;1.00;;
30519;SDS011;17300;50.374;8.006;2022-07-18T00:14:20;1.13;;;0.73;;
30519;SDS011;17300;50.374;8.006;2022-07-18T00:16:47;1.27;;;0.73;;
30519;SDS011;17300;50.374;8.006;2022-07-18T00:19:14;1.00;;;0.90;;
30519;SDS011;17300;50.374;8.006;2022-07-18T00:21:42;0.70;;;0.70;;
30519;SDS011;17300;50.374;8.006;2022-07-18T00:24:10;2.20;;;0.80;;
30519;SDS011;17300;50.374;8.006;2022-07-18T00:26:36;0.70;;;0.70;;
30519;SDS011;17300;50.374;8.006;2022-07-18T00:29:03;1.13;;;0.80;;
30519;SDS011;17300;50.374;8.006;2022-07-18T00:31:32;0.80;;;0.70;;
30519;SDS011;17300;50.374;8.006;2022-07-18T00:33:59;0.80;;;0.80;;
30519;SDS011;17300;50.374;8.006;2022-07-18T00:36:25;1.73;;;0.77;;
30519;SDS011;17300;50.374;8.006;2022-07-18T00:38:52;0.80;;;0.70;;
30519;SDS011;17300;50.374;8.006;2022-07-18T00:41:19;0.87;;;0.87;;
30519;SDS011;17300;50.374;8.006;2022-07-18T00:43:47;0.80;;;0.80;;
30519;SDS011;17300;50.374;8.006;2022-07-18T00:46:14;0.93;;;0.80;;
30519;SDS011;17300;50.374;8.006;2022-07-18T00:48:43;1.83;;;0.70;;
30519;SDS011;17300;50.374;8.006;2022-07-18T00:51:10;0.87;;;0.80;;
30519;SDS011;17300;50.374;8.006;2022-07-18T00:53:37;0.90;;;0.90;;
30519;SDS011;17300;50.374;8.006;2022-07-18T00:56:04;1.73;;;0.90;;
30519;SDS011;17300;50.374;8.006;2022-07-18T00:58:31;1.43;;;0.80;;
30519;SDS011;17300;50.374;8.006;2022-07-18T01:00:58;0.73;;;0.60;;
30519;SDS011;17300;50.374;8.006;2022-07-18T01:03:44;2.13;;;0.70;;
30519;SDS011;17300;50.374;8.006;2022-07-18T01:06:11;0.80;;;0.73;;
30519;SDS011;17300;50.374;8.006;2022-07-18T01:08:37;1.23;;;0.90;;
30519;SDS011;17300;50.374;8.006;2022-07-18T01:11:07;1.17;;;0.77;;
30519;SDS011;17300;50.374;8.006;2022-07-18T01:13:35;0.80;;;0.80;;
30519;SDS011;17300;50.374;8.006;2022-07-18T01:16:02;1.07;;;0.87;;
30519;SDS011;17300;50.374;8.006;2022-07-18T01:18:29;1.53;;;0.80;;
30519;SDS011;17300;50.374;8.006;2022-07-18T01:20:57;0.90;;;0.70;;
30519;SDS011;17300;50.374;8.006;2022-07-18T01:23:24;1.83;;;0.70;;
30519;SDS011;17300;50.374;8.006;2022-07-18T01:25:51;1.07;;;0.80;;
30519;SDS011;17300;50.374;8.006;2022-07-18T01:28:18;0.80;;;0.70;;
30519;SDS011;17300;50.374;8.006;2022-07-18T01:30:45;1.30;;;0.90;;
30519;SDS011;17300;50.374;8.006;2022-07-18T01:33:11;1.00;;;0.73;;
30519;SDS011;17300;50.374;8.006;2022-07-18T01:35:38;1.20;;;0.70;;
30519;SDS011;17300;50.374;8.006;2022-07-18T01:38:06;1.40;;;1.10;;
30519;SDS011;17300;50.374;8.006;2022-07-18T01:40:34;0.87;;;0.87;;
30519;SDS011;17300;50.374;8.006;2022-07-18T01:43:01;1.53;;;0.83;;
30519;SDS011;17300;50.374;8.006;2022-07-18T01:45:27;1.13;;;0.70;;
30519;SDS011;17300;50.374;8.006;2022-07-18T01:47:54;1.13;;;0.70;;
30519;SDS011;17300;50.374;8.006;2022-07-18T01:50:21;1.60;;;0.60;;
30519;SDS011;17300;50.374;8.006;2022-07-18T01:52:48;0.90;;;0.80;;
30519;SDS011;17300;50.374;8.006;2022-07-18T01:55:16;0.90;;;0.80;;
30519;SDS011;17300;50.374;8.006;2022-07-18T01:57:42;0.73;;;0.70;;
30519;SDS011;17300;50.374;8.006;2022-07-18T02:00:10;1.63;;;0.70;;
30519;SDS011;17300;50.374;8.006;2022-07-18T02:02:38;1.00;;;0.70;;
30519;SDS011;17300;50.374;8.006;2022-07-18T02:05:05;0.80;;;0.77;;
30519;SDS011;17300;50.374;8.006;2022-07-18T02:07:33;0.83;;;0.80;;
30519;SDS011;17300;50.374;8.006;2022-07-18T02:10:02;1.17;;;0.80;;
30519;SDS011;17300;50.374;8.006;2022-07-18T02:12:32;1.63;;;0.90;;
30519;SDS011;17300;50.374;8.006;2022-07-18T02:14:59;0.63;;;0.63;;
30519;SDS011;17300;50.374;8.006;2022-07-18T02:17:25;1.93;;;0.67;;
30519;SDS011;17300;50.374;8.006;2022-07-18T02:19:52;1.00;;;0.60;;
30519;SDS011;17300;50.374;8.006;2022-07-18T02:22:19;0.60;;;0.60;;
30519;SDS011;17300;50.374;8.006;2022-07-18T02:24:46;1.57;;;0.70;;
30519;SDS011;17300;50.374;8.006;2022-07-18T02:27:12;1.00;;;0.87;;
30519;SDS011;17300;50.374;8.006;2022-07-18T02:29:40;1.37;;;0.80;;
30519;SDS011;17300;50.374;8.006;2022-07-18T02:32:07;1.00;;;0.80;;
30519;SDS011;17300;50.374;8.006;2022-07-18T02:34:34;1.10;;;0.87;;
30519;SDS011;17300;50.374;8.006;2022-07-18T02:37:01;0.80;;;0.80;;
30519;SDS011;17300;50.374;8.006;2022-07-18T02:39:28;1.90;;;0.70;;
30519;SDS011;17300;50.374;8.006;2022-07-18T02:41:55;0.73;;;0.73;;
30519;SDS011;17300;50.374;8.006;2022-07-18T02:44:23;1.23;;;0.80;;
30519;SDS011;17300;50.374;8.006;2022-07-18T02:46:51;0.93;;;0.70;;
30519;SDS011;17300;50.374;8.006;2022-07-18T02:49:18;0.80;;;0.80;;
30519;SDS011;17300;50.374;8.006;2022-07-18T02:51:54;1.50;;;0.87;;
30519;SDS011;17300;50.374;8.006;2022-07-18T02:54:22;0.80;;;0.80;;
30519;SDS011;17300;50.374;8.006;2022-07-18T02:56:49;1.00;;;0.90;;
30519;SDS011;17300;50.374;8.006;2022-07-18T02:59:16;0.83;;;0.80;;
30519;SDS011;17300;50.374;8.006;2022-07-18T03:01:43;0.67;;;0.67;;
30519;SDS011;17300;50.374;8.006;2022-07-18T03:04:12;1.40;;;1.00;;
30519;SDS011;17300;50.374;8.006;2022-07-18T03:06:39;0.80;;;0.80;;
30519;SDS011;17300;50.374;8.006;2022-07-18T03:09:06;0.80;;;0.70;;
30519;SDS011;17300;50.374;8.006;2022-07-18T03:11:33;1.10;;;0.80;;
30519;SDS011;17300;50.374;8.006;2022-07-18T03:14:00;2.40;;;0.70;;
30519;SDS011;17300;50.374;8.006;2022-07-18T03:16:27;1.20;;;0.90;;
30519;SDS011;17300;50.374;8.006;2022-07-18T03:18:53;1.47;;;0.80;;
30519;SDS011;17300;50.374;8.006;2022-07-18T03:21:21;1.17;;;0.90;;
30519;SDS011;17300;50.374;8.006;2022-07-18T03:23:48;1.47;;;0.80;;
30519;SDS011;17300;50.374;8.006;2022-07-18T03:26:15;1.37;;;0.70;;
30519;SDS011;17300;50.374;8.006;2022-07-18T03:28:42;1.60;;;0.80;;
30519;SDS011;17300;50.374;8.006;2022-07-18T03:31:09;1.13;;;0.70;;
30519;SDS011;17300;50.374;8.006;2022-07-18T03:33:37;0.90;;;0.70;;
30519;SDS011;17300;50.374;8.006;2022-07-18T03:36:03;0.70;;;0.70;;
30519;SDS011;17300;50.374;8.006;2022-07-18T03:38:33;1.90;;;0.80;;
30519;SDS011;17300;50.374;8.006;2022-07-18T03:41:00;1.30;;;0.83;;
30519;SDS011;17300;50.374;8.006;2022-07-18T03:43:28;0.87;;;0.83;;
30519;SDS011;17300;50.374;8.006;2022-07-18T03:45:54;0.70;;;0.70;;
30519;SDS011;17300;50.374;8.006;2022-07-18T03:48:21;1.20;;;0.90;;
30519;SDS011;17300;50.374;8.006;2022-07-18T03:50:48;0.73;;;0.63;;
30519;SDS011;17300;50.374;8.006;2022-07-18T03:53:15;1.20;;;0.90;;
30519;SDS011;17300;50.374;8.006;2022-07-18T03:55:43;0.70;;;0.70;;
30519;SDS011;17300;50.374;8.006;2022-07-18T03:58:10;1.77;;;1.00;;
30519;SDS011;17300;50.374;8.006;2022-07-18T04:00:37;1.10;;;1.00;;
30519;SDS011;17300;50.374;8.006;2022-07-18T04:03:03;1.97;;;1.03;;
30519;SDS011;17300;50.374;8.006;2022-07-18T04:05:30;1.17;;;0.80;;
30519;SDS011;17300;50.374;8.006;2022-07-18T04:07:57;1.00;;;0.90;;
30519;SDS011;17300;50.374;8.006;2022-07-18T04:10:24;2.00;;;0.80;;
30519;SDS011;17300;50.374;8.006;2022-07-18T04:12:54;1.10;;;0.80;;
30519;SDS011;17300;50.374;8.006;2022-07-18T04:15:21;1.13;;;0.80;;
30519;SDS011;17300;50.374;8.006;2022-07-18T04:17:49;1.37;;;0.80;;
30519;SDS011;17300;50.374;8.006;2022-07-18T04:20:17;0.80;;;0.80;;
30519;SDS011;17300;50.374;8.006;2022-07-18T04:22:47;1.30;;;0.93;;
30519;SDS011;17300;50.374;8.006;2022-07-18T04:25:15;1.50;;;0.80;;
30519;SDS011;17300;50.374;8.006;2022-07-18T04:27:42;0.83;;;0.80;;
30519;SDS011;17300;50.374;8.006;2022-07-18T04:30:10;1.23;;;0.90;;
30519;SDS011;17300;50.374;8.006;2022-07-18T04:32:37;1.10;;;0.90;;
30519;SDS011;17300;50.374;8.006;2022-07-18T04:35:05;1.20;;;0.97;;
30519;SDS011;17300;50.374;8.006;2022-07-18T04:37:32;0.80;;;0.80;;
30519;SDS011;17300;50.374;8.006;2022-07-18T04:40:00;1.03;;;0.80;;
30519;SDS011;17300;50.374;8.006;2022-07-18T04:42:27;1.50;;;0.90;;
30519;SDS011;17300;50.374;8.006;2022-07-18T04:44:55;0.70;;;0.63;;
30519;SDS011;17300;50.374;8.006;2022-07-18T04:50:50;0.70;;;0.70;;
30519;SDS011;17300;50.374;8.006;2022-07-18T04:53:17;1.00;;;0.60;;
30519;SDS011;17300;50.374;8.006;2022-07-18T04:55:44;0.70;;;0.70;;
30519;SDS011;17300;50.374;8.006;2022-07-18T04:58:10;0.90;;;0.70;;
30519;SDS011;17300;50.374;8.006;2022-07-18T05:00:37;1.00;;;0.73;;
30519;SDS011;17300;50.374;8.006;2022-07-18T05:03:04;1.33;;;1.00;;
30519;SDS011;17300;50.374;8.006;2022-07-18T05:10:43;1.90;;;1.00;;
30519;SDS011;17300;50.374;8.006;2022-07-18T05:13:10;0.90;;;0.90;;
30519;SDS011;17300;50.374;8.006;2022-07-18T05:15:36;1.53;;;1.03;;
30519;SDS011;17300;50.374;8.006;2022-07-18T05:18:03;1.10;;;0.90;;
30519;SDS011;17300;50.374;8.006;2022-07-18T05:20:30;0.90;;;0.90;;
30519;SDS011;17300;50.374;8.006;2022-07-18T05:22:57;1.13;;;0.93;;
30519;SDS011;17300;50.374;8.006;2022-07-18T05:25:23;1.20;;;1.00;;
30519;SDS011;17300;50.374;8.006;2022-07-18T05:27:52;0.80;;;0.80;;
30519;SDS011;17300;50.374;8.006;2022-07-18T05:30:19;1.83;;;1.20;;
30519;SDS011;17300;50.374;8.006;2022-07-18T05:32:48;1.10;;;1.00;;
30519;SDS011;17300;50.374;8.006;2022-07-18T05:35:17;2.30;;;1.00;;
30519;SDS011;17300;50.374;8.006;2022-07-18T05:37:43;1.23;;;1.10;;
30519;SDS011;17300;50.374;8.006;2022-07-18T05:40:11;2.70;;;1.30;;
30519;SDS011;17300;50.374;8.006;2022-07-18T05:42:39;1.20;;;1.00;;
30519;SDS011;17300;50.374;8.006;2022-07-18T05:45:09;1.97;;;1.00;;
30519;SDS011;17300;50.374;8.006;2022-07-18T05:47:37;2.17;;;1.00;;
30519;SDS011;17300;50.374;8.006;2022-07-18T05:50:04;0.97;;;0.90;;
30519;SDS011;17300;50.374;8.006;2022-07-18T05:52:32;1.77;;;1.30;;
30519;SDS011;17300;50.374;8.006;2022-07-18T05:54:58;1.70;;;1.10;;
30519;SDS011;17300;50.374;8.006;2022-07-18T05:57:25;1.07;;;1.00;;
30519;SDS011;17300;50.374;8.006;2022-07-18T05:59:52;1.13;;;0.97;;
30519;SDS011;17300;50.374;8.006;2022-07-18T06:02:20;1.00;;;0.90;;
30519;SDS011;17300;50.374;8.006;2022-07-18T06:04:47;1.43;;;1.10;;
30519;SDS011;17300;50.374;8.006;2022-07-18T06:07:15;1.00;;;0.85;;
30519;SDS011;17300;50.374;8.006;2022-07-18T06:09:41;1.60;;;1.00;;
30519;SDS011;17300;50.374;8.006;2022-07-18T06:12:08;1.77;;;1.30;;
30519;SDS011;17300;50.374;8.006;2022-07-18T06:14:35;2.15;;;1.40;;
30519;SDS011;17300;50.374;8.006;2022-07-18T06:17:01;1.65;;;1.00;;
30519;SDS011;17300;50.374;8.006;2022-07-18T06:19:30;1.50;;;1.00;;
30519;SDS011;17300;50.374;8.006;2022-07-18T06:21:56;2.05;;;0.90;;
30519;SDS011;17300;50.374;8.006;2022-07-18T06:24:24;1.92;;;1.02;;
30519;SDS011;17300;50.374;8.006;2022-07-18T06:26:51;0.93;;;0.90;;
30519;SDS011;17300;50.374;8.006;2022-07-18T06:29:17;1.00;;;0.90;;
30519;SDS011;17300;50.374;8.006;2022-07-18T06:31:44;0.88;;;0.77;;
30519;SDS011;17300;50.374;8.006;2022-07-18T06:34:11;0.82;;;0.80;;
30519;SDS011;17300;50.374;8.006;2022-07-18T06:36:39;1.15;;;0.95;;
30519;SDS011;17300;50.374;8.006;2022-07-18T06:39:06;2.08;;;0.90;;
30519;SDS011;17300;50.374;8.006;2022-07-18T06:41:36;1.25;;;1.02;;
30519;SDS011;17300;50.374;8.006;2022-07-18T06:44:03;1.35;;;0.88;;
30519;SDS011;17300;50.374;8.006;2022-07-18T06:46:30;0.77;;;0.77;;
30519;SDS011;17300;50.374;8.006;2022-07-18T06:48:56;1.77;;;1.00;;
30519;SDS011;17300;50.374;8.006;2022-07-18T06:51:23;1.42;;;1.17;;
30519;SDS011;17300;50.374;8.006;2022-07-18T06:53:52;1.42;;;1.00;;
30519;SDS011;17300;50.374;8.006;2022-07-18T06:56:19;1.10;;;0.90;;
30519;SDS011;17300;50.374;8.006;2022-07-18T06:58:46;3.05;;;1.20;;
30519;SDS011;17300;50.374;8.006;2022-07-18T07:01:15;0.90;;;0.80;;
30519;SDS011;17300;50.374;8.006;2022-07-18T07:03:43;1.05;;;0.90;;
30519;SDS011;17300;50.374;8.006;2022-07-18T07:06:10;1.00;;;0.88;;
30519;SDS011;17300;50.374;8.006;2022-07-18T07:08:37;3.33;;;1.10;;
30519;SDS011;17300;50.374;8.006;2022-07-18T07:11:05;1.73;;;1.00;;
30519;SDS011;17300;50.374;8.006;2022-07-18T07:13:32;1.10;;;1.02;;
30519;SDS011;17300;50.374;8.006;2022-07-18T07:15:59;1.65;;;0.77;;
30519;SDS011;17300;50.374;8.006;2022-07-18T07:18:30;1.00;;;0.90;;
30519;SDS011;17300;50.374;8.006;2022-07-18T07:20:57;1.08;;;0.98;;
30519;SDS011;17300;50.374;8.006;2022-07-18T07:23:24;1.00;;;0.85;;
30519;SDS011;17300;50.374;8.006;2022-07-18T07:25:51;2.25;;;1.10;;
30519;SDS011;17300;50.374;8.006;2022-07-18T07:28:21;1.70;;;1.00;;
30519;SDS011;17300;50.374;8.006;2022-07-18T07:30:47;1.20;;;0.98;;
30519;SDS011;17300;50.374;8.006;2022-07-18T07:33:14;2.10;;;1.20;;
30519;SDS011;17300;50.374;8.006;2022-07-18T07:35:41;2.33;;;1.52;;
30519;SDS011;17300;50.374;8.006;2022-07-18T07:38:08;2.15;;;1.50;;
30519;SDS011;17300;50.374;8.006;2022-07-18T07:40:35;1.83;;;1.30;;
30519;SDS011;17300;50.374;8.006;2022-07-18T07:43:05;1.15;;;0.90;;
30519;SDS011;17300;50.374;8.006;2022-07-18T07:45:34;1.70;;;0.90;;
30519;SDS011;17300;50.374;8.006;2022-07-18T07:48:01;1.40;;;1.00;;
30519;SDS011;17300;50.374;8.006;2022-07-18T07:50:29;1.33;;;0.85;;
30519;SDS011;17300;50.374;8.006;2022-07-18T07:52:56;1.13;;;0.95;;
30519;SDS011;17300;50.374;8.006;2022-07-18T07:55:23;1.48;;;1.00;;
30519;SDS011;17300;50.374;8.006;2022-07-18T07:57:50;2.40;;;0.90;;
30519;SDS011;17300;50.374;8.006;2022-07-18T08:00:17;1.98;;;1.00;;
30519;SDS011;17300;50.374;8.006;2022-07-18T08:02:53;1.92;;;0.90;;
30519;SDS011;17300;50.374;8.006;2022-07-18T08:05:21;2.95;;;0.93;;
30519;SDS011;17300;50.374;8.006;2022-07-18T08:07:48;1.58;;;0.98;;
30519;SDS011;17300;50.374;8.006;2022-07-18T08:10:15;1.20;;;1.10;;
30519;SDS011;17300;50.374;8.006;2022-07-18T08:12:42;1.52;;;1.20;;
30519;SDS011;17300;50.374;8.006;2022-07-18T08:15:09;1.65;;;0.98;;
30519;SDS011;17300;50.374;8.006;2022-07-18T08:17:36;1.35;;;0.85;;
30519;SDS011;17300;50.374;8.006;2022-07-18T08:20:05;1.17;;;0.80;;
30519;SDS011;17300;50.374;8.006;2022-07-18T08:22:33;6.03;;;1.30;;
30519;SDS011;17300;50.374;8.006;2022-07-18T08:25:00;2.78;;;1.02;;
30519;SDS011;17300;50.374;8.006;2022-07-18T08:27:27;9.65;;;1.13;;
30519;SDS011;17300;50.374;8.006;2022-07-18T08:29:54;1.02;;;0.90;;
30519;SDS011;17300;50.374;8.006;2022-07-18T08:32:21;1.65;;;0.88;;
30519;SDS011;17300;50.374;8.006;2022-07-18T08:34:47;1.02;;;1.00;;
30519;SDS011;17300;50.374;8.006;2022-07-18T08:37:19;4.25;;;1.10;;
30519;SDS011;17300;50.374;8.006;2022-07-18T08:39:46;11.40;;;1.30;;
30519;SDS011;17300;50.374;8.006;2022-07-18T08:42:13;1.38;;;0.90;;
30519;SDS011;17300;50.374;8.006;2022-07-18T08:44:44;1.88;;;0.90;;
30519;SDS011;17300;50.374;8.006;2022-07-18T08:47:12;1.67;;;1.17;;
30519;SDS011;17300;50.374;8.006;2022-07-18T08:49:41;0.90;;;0.77;;
30519;SDS011;17300;50.374;8.006;2022-07-18T08:52:08;0.90;;;0.90;;
30519;SDS011;17300;50.374;8.006;2022-07-18T08:54:37;2.42;;;0.90;;
30519;SDS011;17300;50.374;8.006;2022-07-18T08:57:03;0.88;;;0.77;;
30519;SDS011;17300;50.374;8.006;2022-07-18T08:59:30;0.80;;;0.80;;
30519;SDS011;17300;50.374;8.006;2022-07-18T09:01:57;1.10;;;0.90;;
30519;SDS011;17300;50.374;8.006;2022-07-18T09:04:33;1.67;;;0.82;;
30519;SDS011;17300;50.374;8.006;2022-07-18T09:07:02;0.90;;;0.90;;
30519;SDS011;17300;50.374;8.006;2022-07-18T09:09:29;1.30;;;1.20;;
30519;SDS011;17300;50.374;8.006;2022-07-18T09:11:59;1.58;;;1.20;;
30519;SDS011;17300;50.374;8.006;2022-07-18T09:14:27;1.60;;;1.20;;
30519;SDS011;17300;50.374;8.006;2022-07-18T09:16:59;1.30;;;1.20;;
30519;SDS011;17300;50.374;8.006;2022-07-18T09:19:27;3.28;;;0.95;;
30519;SDS011;17300;50.374;8.006;2022-07-18T09:21:54;1.70;;;1.20;;
30519;SDS011;17300;50.374;8.006;2022-07-18T09:24:41;1.25;;;1.00;;
30519;SDS011;17300;50.374;8.006;2022-07-18T09:27:28;1.20;;;1.10;;
30519;SDS011;17300;50.374;8.006;2022-07-18T09:30:11;2.10;;;1.05;;
30519;SDS011;17300;50.374;8.006;2022-07-18T09:32:46;2.22;;;1.23;;
30519;SDS011;17300;50.374;8.006;2022-07-18T09:35:15;2.35;;;1.00;;
30519;SDS011;17300;50.374;8.006;2022-07-18T09:37:56;0.93;;;0.93;;
30519;SDS011;17300;50.374;8.006;2022-07-18T09:40:28;1.58;;;1.10;;
30519;SDS011;17300;50.374;8.006;2022-07-18T09:43:00;1.02;;;1.02;;
30519;SDS011;17300;50.374;8.006;2022-07-18T09:45:28;2.63;;;1.05;;
30519;SDS011;17300;50.374;8.006;2022-07-18T09:47:57;1.48;;;1.17;;
30519;SDS011;17300;50.374;8.006;2022-07-18T09:50:26;0.90;;;0.90;;
30519;SDS011;17300;50.374;8.006;2022-07-18T09:52:55;1.48;;;1.05;;
30519;SDS011;17300;50.374;8.006;2022-07-18T09:55:46;1.08;;;1.02;;
30519;SDS011;17300;50.374;8.006;2022-07-18T09:58:16;1.13;;;1.00;;
30519;SDS011;17300;50.374;8.006;2022-07-18T10:00:45;1.58;;;1.00;;
30519;SDS011;17300;50.374;8.006;2022-07-18T10:03:12;1.25;;;1.00;;
30519;SDS011;17300;50.374;8.006;2022-07-18T10:05:40;1.10;;;1.00;;
30519;SDS011;17300;50.374;8.006;2022-07-18T10:08:08;1.00;;;1.00;;
30519;SDS011;17300;50.374;8.006;2022-07-18T10:10:36;1.42;;;1.10;;
30519;SDS011;17300;50.374;8.006;2022-07-18T10:13:04;1.20;;;1.10;;
30519;SDS011;17300;50.374;8.006;2022-07-18T10:15:34;0.93;;;0.93;;
30519;SDS011;17300;50.374;8.006;2022-07-18T10:18:06;0.95;;;0.95;;
30519;SDS011;17300;50.374;8.006;2022-07-18T10:20:35;1.08;;;0.98;;
30519;SDS011;17300;50.374;8.006;2022-07-18T10:23:07;1.10;;;1.00;;
30519;SDS011;17300;50.374;8.006;2022-07-18T10:25:36;1.20;;;1.10;;
30519;SDS011;17300;50.374;8.006;2022-07-18T10:28:04;1.42;;;1.05;;
30519;SDS011;17300;50.374;8.006;2022-07-18T10:30:35;1.30;;;1.20;;
30519;SDS011;17300;50.374;8.006;2022-07-18T10:33:04;1.30;;;1.20;;
30519;SDS011;17300;50.374;8.006;2022-07-18T10:36:09;1.20;;;1.10;;
30519;SDS011;17300;50.374;8.006;2022-07-18T10:38:38;3.08;;;1.10;;
30519;SDS011;17300;50.374;8.006;2022-07-18T10:41:20;1.10;;;1.10;;
30519;SDS011;17300;50.374;8.006;2022-07-18T10:43:47;1.40;;;1.20;;
30519;SDS011;17300;50.374;8.006;2022-07-18T10:46:15;1.10;;;1.10;;
30519;SDS011;17300;50.374;8.006;2022-07-18T10:51:30;1.10;;;1.10;;
30519;SDS011;17300;50.374;8.006;2022-07-18T10:54:07;1.20;;;1.10;;
30519;SDS011;17300;50.374;8.006;2022-07-18T10:59:32;1.90;;;1.00;;
30519;SDS011;17300;50.374;8.006;2022-07-18T11:02:03;3.72;;;1.08;;
30519;SDS011;17300;50.374;8.006;2022-07-18T11:04:33;1.00;;;1.00;;
30519;SDS011;17300;50.374;8.006;2022-07-18T11:07:06;0.90;;;0.90;;
30519;SDS011;17300;50.374;8.006;2022-07-18T11:09:37;1.60;;;1.00;;
30519;SDS011;17300;50.374;8.006;2022-07-18T11:12:25;1.38;;;0.80;;
30519;SDS011;17300;50.374;8.006;2022-07-18T11:17:55;2.67;;;1.00;;
30519;SDS011;17300;50.374;8.006;2022-07-18T11:20:35;1.58;;;1.00;;
30519;SDS011;17300;50.374;8.006;2022-07-18T11:23:04;1.35;;;1.00;;
30519;SDS011;17300;50.374;8.006;2022-07-18T11:25:39;1.10;;;0.85;;
30519;SDS011;17300;50.374;8.006;2022-07-18T11:28:07;0.90;;;0.85;;
30519;SDS011;17300;50.374;8.006;2022-07-18T11:30:34;1.38;;;0.98;;
30519;SDS011;17300;50.374;8.006;2022-07-18T11:33:03;0.82;;;0.82;;
30519;SDS011;17300;50.374;8.006;2022-07-18T11:35:30;1.67;;;0.90;;
30519;SDS011;17300;50.374;8.006;2022-07-18T11:37:58;1.00;;;0.88;;
30519;SDS011;17300;50.374;8.006;2022-07-18T11:40:30;0.88;;;0.70;;
30519;SDS011;17300;50.374;8.006;2022-07-18T11:42:57;1.48;;;0.80;;
30519;SDS011;17300;50.374;8.006;2022-07-18T11:45:24;1.15;;;0.75;;
30519;SDS011;17300;50.374;8.006;2022-07-18T11:47:51;1.75;;;0.90;;
30519;SDS011;17300;50.374;8.006;2022-07-18T11:50:26;1.27;;;0.80;;
30519;SDS011;17300;50.374;8.006;2022-07-18T11:53:01;2.17;;;0.82;;
30519;SDS011;17300;50.374;8.006;2022-07-18T11:55:31;1.45;;;0.90;;
30519;SDS011;17300;50.374;8.006;2022-07-18T11:58:05;1.95;;;0.70;;
30519;SDS011;17300;50.374;8.006;2022-07-18T12:00:33;0.70;;;0.70;;
30519;SDS011;17300;50.374;8.006;2022-07-18T12:03:06;1.20;;;0.80;;
30519;SDS011;17300;50.374;8.006;2022-07-18T12:05:36;1.05;;;0.82;;
30519;SDS011;17300;50.374;8.006;2022-07-18T12:11:01;2.10;;;0.90;;
30519;SDS011;17300;50.374;8.006;2022-07-18T12:13:39;1.23;;;0.93;;
30519;SDS011;17300;50.374;8.006;2022-07-18T12:16:07;0.80;;;0.80;;
30519;SDS011;17300;50.374;8.006;2022-07-18T12:18:34;0.90;;;0.90;;
30519;SDS011;17300;50.374;8.006;2022-07-18T12:21:08;1.05;;;0.80;;
30519;SDS011;17300;50.374;8.006;2022-07-18T12:23:35;1.10;;;1.00;;
30519;SDS011;17300;50.374;8.006;2022-07-18T12:26:02;2.47;;;0.80;;
30519;SDS011;17300;50.374;8.006;2022-07-18T12:28:29;0.80;;;0.80;;
30519;SDS011;17300;50.374;8.006;2022-07-18T12:30:56;0.93;;;0.80;;
30519;SDS011;17300;50.374;8.006;2022-07-18T12:33:22;1.10;;;1.00;;
30519;SDS011;17300;50.374;8.006;2022-07-18T12:35:56;1.20;;;1.10;;
30519;SDS011;17300;50.374;8.006;2022-07-18T12:38:25;0.85;;;0.82;;
30519;SDS011;17300;50.374;8.006;2022-07-18T12:40:53;0.65;;;0.65;;
30519;SDS011;17300;50.374;8.006;2022-07-18T12:43:23;0.75;;;0.75;;
30519;SDS011;17300;50.374;8.006;2022-07-18T12:45:51;1.80;;;0.90;;
30519;SDS011;17300;50.374;8.006;2022-07-18T12:48:19;2.92;;;0.98;;
30519;SDS011;17300;50.374;8.006;2022-07-18T12:50:55;0.80;;;0.80;;
30519;SDS011;17300;50.374;8.006;2022-07-18T12:53:22;1.02;;;0.98;;
30519;SDS011;17300;50.374;8.006;2022-07-18T12:55:51;1.00;;;0.90;;
30519;SDS011;17300;50.374;8.006;2022-07-18T12:58:17;1.05;;;1.00;;
30519;SDS011;17300;50.374;8.006;2022-07-18T13:00:45;1.10;;;0.93;;
30519;SDS011;17300;50.374;8.006;2022-07-18T13:03:12;0.85;;;0.82;;
30519;SDS011;17300;50.374;8.006;2022-07-18T13:05:39;1.52;;;0.80;;
30519;SDS011;17300;50.374;8.006;2022-07-18T13:08:06;2.05;;;0.93;;
30519;SDS011;17300;50.374;8.006;2022-07-18T13:10:35;0.70;;;0.70;;
30519;SDS011;17300;50.374;8.006;2022-07-18T13:13:04;1.92;;;0.88;;
30519;SDS011;17300;50.374;8.006;2022-07-18T13:15:31;1.75;;;0.95;;
30519;SDS011;17300;50.374;8.006;2022-07-18T13:17:58;0.90;;;0.90;;
30519;SDS011;17300;50.374;8.006;2022-07-18T13:20:26;24.05;;;9.38;;
30519;SDS011;17300;50.374;8.006;2022-07-18T13:22:52;15.00;;;6.40;;
30519;SDS011;17300;50.374;8.006;2022-07-18T13:25:20;24.33;;;11.77;;
30519;SDS011;17300;50.374;8.006;2022-07-18T13:27:49;19.67;;;10.38;;
30519;SDS011;17300;50.374;8.006;2022-07-18T13:30:16;7.63;;;4.90;;
30519;SDS011;17300;50.374;8.006;2022-07-18T13:32:43;4.15;;;3.17;;
30519;SDS011;17300;50.374;8.006;2022-07-18T13:35:10;4.43;;;2.83;;
30519;SDS011;17300;50.374;8.006;2022-07-18T13:37:37;4.75;;;3.60;;
30519;SDS011;17300;50.374;8.006;2022-07-18T13:40:04;6.32;;;3.17;;
30519;SDS011;17300;50.374;8.006;2022-07-18T13:42:33;3.72;;;2.15;;
30519;SDS011;17300;50.374;8.006;2022-07-18T13:45:02;3.10;;;1.40;;
30519;SDS011;17300;50.374;8.006;2022-07-18T13:47:30;2.00;;;1.20;;
30519;SDS011;17300;50.374;8.006;2022-07-18T13:49:57;1.40;;;1.30;;
30519;SDS011;17300;50.374;8.006;2022-07-18T13:52:24;3.75;;;1.20;;
30519;SDS011;17300;50.374;8.006;2022-07-18T13:54:51;1.30;;;1.20;;
30519;SDS011;17300;50.374;8.006;2022-07-18T13:57:19;2.85;;;1.60;;
30519;SDS011;17300;50.374;8.006;2022-07-18T13:59:46;2.28;;;1.30;;
30519;SDS011;17300;50.374;8.006;2022-07-18T14:02:14;2.00;;;1.20;;
30519;SDS011;17300;50.374;8.006;2022-07-18T14:04:41;2.50;;;1.20;;
30519;SDS011;17300;50.374;8.006;2022-07-18T14:07:13;2.35;;;1.20;;
30519;SDS011;17300;50.374;8.006;2022-07-18T14:09:44;1.67;;;1.13;;
30519;SDS011;17300;50.374;8.006;2022-07-18T14:12:11;1.40;;;1.10;;
30519;SDS011;17300;50.374;8.006;2022-07-18T14:14:38;1.75;;;1.00;;
30519;SDS011;17300;50.374;8.006;2022-07-18T14:17:05;1.67;;;1.10;;
30519;SDS011;17300;50.374;8.006;2022-07-18T14:19:38;1.17;;;1.00;;
30519;SDS011;17300;50.374;8.006;2022-07-18T14:22:05;1.67;;;1.10;;
30519;SDS011;17300;50.374;8.006;2022-07-18T14:24:38;1.25;;;1.00;;
30519;SDS011;17300;50.374;8.006;2022-07-18T14:27:12;1.67;;;1.00;;
30519;SDS011;17300;50.374;8.006;2022-07-18T14:29:38;0.95;;;0.90;;
30519;SDS011;17300;50.374;8.006;2022-07-18T14:32:10;3.08;;;0.95;;
30519;SDS011;17300;50.374;8.006;2022-07-18T14:34:38;1.10;;;1.00;;
30519;SDS011;17300;50.374;8.006;2022-07-18T14:37:05;0.70;;;0.70;;
30519;SDS011;17300;50.374;8.006;2022-07-18T14:39:32;2.65;;;1.20;;
30519;SDS011;17300;50.374;8.006;2022-07-18T14:41:58;1.25;;;1.00;;
30519;SDS011;17300;50.374;8.006;2022-07-18T14:44:25;0.88;;;0.80;;
30519;SDS011;17300;50.374;8.006;2022-07-18T14:46:52;1.20;;;1.10;;
30519;SDS011;17300;50.374;8.006;2022-07-18T14:49:19;1.10;;;1.05;;
30519;SDS011;17300;50.374;8.006;2022-07-18T14:51:47;0.95;;;0.90;;
30519;SDS011;17300;50.374;8.006;2022-07-18T14:54:14;0.90;;;0.90;;
30519;SDS011;17300;50.374;8.006;2022-07-18T14:56:40;1.40;;;1.05;;
30519;SDS011;17300;50.374;8.006;2022-07-18T14:59:07;1.63;;;1.10;;
30519;SDS011;17300;50.374;8.006;2022-07-18T15:01:34;1.20;;;1.10;;
30519;SDS011;17300;50.374;8.006;2022-07-18T15:04:01;1.20;;;1.10;;
30519;SDS011;17300;50.374;8.006;2022-07-18T15:06:27;1.10;;;1.00;;
30519;SDS011;17300;50.374;8.006;2022-07-18T15:08:56;1.20;;;1.10;;
30519;SDS011;17300;50.374;8.006;2022-07-18T15:11:22;1.85;;;0.95;;
30519;SDS011;17300;50.374;8.006;2022-07-18T15:13:49;1.17;;;1.05;;
30519;SDS011;17300;50.374;8.006;2022-07-18T15:16:16;1.40;;;1.00;;